Time;durP1;ratioP1;P1;durP2;ratioP2;P2;SDS_P1;SDS_P2;PMS_P1;PMS_P2;Temp;Humidity;BMP_temperature;BMP_pressure;BME280_temperature;BME280_humidity;BME280_pressure;Samples;Min_cycle;Max_cycle;Signal;HPM_P1;HPM_P2
2020/12/04 00:00:30;;;;;;;61.42;38.17;;;;;;;-1.01;87.19;98554.11;1672718;85;21002;-68
2020/12/04 00:02:58;;;;;;;61.35;38.67;;;;;;;-1.02;87.20;98565.25;1682454;85;21140;-65
2020/12/04 00:05:26;;;;;;;60.25;37.95;;;;;;;-1.01;87.21;98564.36;1673378;85;21214;-67
2020/12/04 00:07:53;;;;;;;53.83;33.50;;;;;;;-1.02;87.17;98560.13;1694758;83;21689;-67
2020/12/04 00:10:19;;;;;;;58.92;37.15;;;;;;;-1.03;87.18;98563.57;1659976;85;21267;-69
2020/12/04 00:12:46;;;;;;;61.92;36.15;;;;;;;-1.03;87.20;98563.57;1674891;83;21413;-66
2020/12/04 00:15:13;;;;;;;61.20;40.38;;;;;;;-1.05;87.21;98568.71;1678086;84;21575;-66
2020/12/04 00:17:40;;;;;;;59.98;37.85;;;;;;;-1.05;87.25;98565.31;1697215;83;21135;-68
2020/12/04 00:20:08;;;;;;;59.53;33.95;;;;;;;-1.04;87.21;98561.86;1692925;83;21135;-66
2020/12/04 00:22:35;;;;;;;;;;;;;;;-1.05;87.17;98553.34;1704127;83;21214;-66
2020/12/04 00:25:02;;;;;;;57.43;35.92;;;;;;;-1.06;87.23;98563.63;1701851;82;20275;-67
2020/12/04 00:27:29;;;;;;;59.50;36.85;;;;;;;-1.07;87.25;98563.20;1707838;83;21138;-66
2020/12/04 00:29:55;;;;;;;58.73;37.10;;;;;;;-1.07;87.23;98569.61;1696001;83;21660;-67
2020/12/04 00:32:22;;;;;;;62.10;38.25;;;;;;;-1.07;87.22;98573.01;1703297;82;21686;-67
2020/12/04 00:34:49;;;;;;;59.15;38.10;;;;;;;-1.08;87.22;98567.48;1702124;82;21071;-66
2020/12/04 00:37:16;;;;;;;62.25;37.78;;;;;;;-1.08;87.18;98562.37;1695086;82;21585;-66
2020/12/04 00:39:43;;;;;;;62.67;38.55;;;;;;;-1.08;87.23;98556.41;1700491;83;21021;-69
2020/12/04 00:42:10;;;;;;;68.70;38.45;;;;;;;-1.07;87.22;98567.05;1707664;83;21158;-68
2020/12/04 00:44:37;;;;;;;53.17;33.40;;;;;;;-1.09;87.21;98553.41;1699795;82;21686;-66
2020/12/04 00:47:04;;;;;;;54.98;36.63;;;;;;;-1.08;87.19;98542.31;1689702;83;20973;-67
2020/12/04 00:49:31;;;;;;;65.00;39.42;;;;;;;-1.09;87.19;98548.29;1705023;83;21638;-66
2020/12/04 00:51:58;;;;;;;54.77;35.80;;;;;;;-1.10;87.21;98538.92;1693182;83;21198;-67
2020/12/04 00:54:26;;;;;;;56.85;37.08;;;;;;;-1.11;87.23;98540.66;1693746;83;21135;-68
2020/12/04 00:56:54;;;;;;;58.65;37.13;;;;;;;-1.09;87.21;98550.85;1696232;83;21223;-67
2020/12/04 00:59:21;;;;;;;47.88;31.17;;;;;;;-1.10;87.22;98549.17;1697743;83;21621;-68
2020/12/04 01:01:48;;;;;;;57.05;35.25;;;;;;;-1.09;87.20;98538.05;1696002;83;21028;-67
2020/12/04 01:04:14;;;;;;;62.83;36.13;;;;;;;-1.09;87.18;98532.92;1691726;83;21581;-67
2020/12/04 01:06:41;;;;;;;58.20;34.83;;;;;;;-1.11;87.22;98534.69;1703669;83;21218;-69
2020/12/04 01:09:08;;;;;;;53.33;36.13;;;;;;;-1.12;87.22;98536.41;1713123;82;21645;-67
2020/12/04 01:11:35;;;;;;;57.93;36.73;;;;;;;-1.11;87.24;98539.81;1680846;83;21756;-67
2020/12/04 01:14:02;;;;;;;72.80;38.23;;;;;;;-1.11;87.21;98537.25;1691202;83;21228;-67
2020/12/04 01:16:29;;;;;;;60.08;37.25;;;;;;;-1.11;87.25;98553.91;1677454;83;21287;-67
2020/12/04 01:18:56;;;;;;;57.75;36.00;;;;;;;-1.09;87.23;98555.98;1689055;83;21601;-65
2020/12/04 01:21:23;;;;;;;56.68;34.33;;;;;;;-1.08;87.18;98560.25;1684604;83;21228;-66
2020/12/04 01:23:52;;;;;;;54.35;33.18;;;;;;;-1.08;87.16;98541.03;1683088;83;21044;-68
2020/12/04 01:26:19;;;;;;;57.58;35.63;;;;;;;-1.08;87.16;98539.75;1657454;85;21111;-67
2020/12/04 01:28:46;;;;;;;55.60;35.88;;;;;;;-1.08;87.17;98519.26;1679525;83;21170;-66
2020/12/04 01:31:13;;;;;;;53.25;32.88;;;;;;;-1.09;87.19;98503.46;1686116;83;21577;-68
2020/12/04 01:33:40;;;;;;;56.88;33.00;;;;;;;-1.10;87.15;98513.31;1683262;83;21651;-67
2020/12/04 01:36:07;;;;;;;57.23;33.30;;;;;;;-1.11;87.19;98514.20;1677432;83;21217;-67
2020/12/04 01:38:34;;;;;;;55.88;32.45;;;;;;;-1.11;87.22;98503.95;1693876;83;21171;-66
2020/12/04 01:41:02;;;;;;;55.38;34.88;;;;;;;-1.13;87.21;98498.41;1703922;83;21190;-66
2020/12/04 01:43:29;;;;;;;56.53;35.38;;;;;;;-1.11;87.22;98491.14;1693013;83;21007;-68
2020/12/04 01:45:59;;;;;;;54.30;33.15;;;;;;;-1.11;87.24;98490.70;1692093;83;22182;-67
2020/12/04 01:48:26;;;;;;;52.13;28.98;;;;;;;-1.11;87.17;98488.58;1698848;83;21179;-67
2020/12/04 01:50:53;;;;;;;59.05;35.00;;;;;;;-1.10;87.15;98476.17;1685511;83;21621;-66
2020/12/04 01:53:21;;;;;;;50.67;31.65;;;;;;;-1.10;87.21;98471.05;1677618;84;22300;-67
2020/12/04 01:55:50;;;;;;;52.88;32.10;;;;;;;-1.10;87.19;98464.64;1675182;84;21562;-68
2020/12/04 01:58:17;;;;;;;43.05;25.23;;;;;;;-1.09;87.20;98466.31;1679636;83;22243;-66
2020/12/04 02:00:45;;;;;;;48.25;28.90;;;;;;;-1.10;87.18;98468.04;1685739;83;21104;-68
2020/12/04 02:03:14;;;;;;;47.90;30.32;;;;;;;-1.10;87.19;98465.48;1682459;83;21052;-66
2020/12/04 02:05:48;;;;;;;53.38;32.10;;;;;;;-1.09;87.19;98463.75;1680954;83;21266;-67
2020/12/04 02:08:23;;;;;;;47.35;29.67;;;;;;;-1.08;87.23;98462.90;1662796;85;21039;-66
2020/12/04 02:10:56;;;;;;;44.23;24.00;;;;;;;-1.06;87.18;98461.16;1686771;83;21223;-66
2020/12/04 02:13:25;;;;;;;59.27;36.08;;;;;;;-1.07;87.18;98465.41;1684495;83;21659;-67
2020/12/04 02:15:52;;;;;;;51.98;34.20;;;;;;;-1.07;87.22;98465.41;1682101;83;21020;-68
2020/12/04 02:18:19;;;;;;;54.77;33.02;;;;;;;-1.06;87.23;98472.69;1682447;82;21584;-66
2020/12/04 02:20:59;;;;;;;55.23;31.85;;;;;;;-1.04;87.23;98469.63;1696681;83;22865;-66
2020/12/04 02:23:26;;;;;;;44.63;26.45;;;;;;;-1.03;87.19;98466.22;1688244;83;21318;-67
2020/12/04 02:25:58;;;;;;;52.38;34.85;;;;;;;-1.04;87.17;98461.95;1697409;83;21190;-67
2020/12/04 02:28:38;;;;;;;55.45;31.10;;;;;;;-1.03;87.24;98454.69;1692413;83;21198;-68
2020/12/04 02:31:06;;;;;;;52.65;31.27;;;;;;;-1.02;87.23;98462.77;1689447;83;21143;-66
2020/12/04 02:33:34;;;;;;;54.23;33.02;;;;;;;-1.02;87.19;98455.08;1692757;84;21866;-66
2020/12/04 02:36:02;;;;;;;59.77;33.98;;;;;;;-1.02;87.20;98457.64;1693245;83;24436;-67
2020/12/04 02:38:30;;;;;;;54.35;32.35;;;;;;;-1.01;87.24;98451.63;1689548;82;21206;-68
2020/12/04 02:40:57;;;;;;;38.90;23.45;;;;;;;-1.03;87.22;98448.28;1696099;83;21147;-67
2020/12/04 02:43:25;;;;;;;53.85;33.95;;;;;;;-1.03;87.24;98445.72;1688620;83;21835;-68
2020/12/04 02:45:53;;;;;;;51.90;32.23;;;;;;;-1.03;87.27;98448.28;1702215;84;21202;-66
2020/12/04 02:48:20;;;;;;;55.03;32.35;;;;;;;-1.03;87.30;98438.03;1694330;83;27329;-68
2020/12/04 02:50:47;;;;;;;47.45;30.00;;;;;;;-1.03;87.33;98444.00;1689437;84;21190;-65
2020/12/04 02:53:14;;;;;;;59.45;35.17;;;;;;;-1.03;87.31;98441.88;1697790;82;21219;-66
2020/12/04 02:55:41;;;;;;;56.73;34.10;;;;;;;-1.04;87.34;98444.85;1696519;83;21021;-66
2020/12/04 02:58:08;;;;;;;56.83;34.35;;;;;;;-1.03;87.35;98443.16;1694111;84;21167;-67
2020/12/04 03:00:35;;;;;;;54.03;32.23;;;;;;;-1.03;87.31;98440.59;1688318;84;21648;-69
2020/12/04 03:03:02;;;;;;;48.80;31.42;;;;;;;-1.08;87.35;98429.59;1696607;83;20992;-69
2020/12/04 03:05:29;;;;;;;48.38;31.50;;;;;;;-1.02;87.30;98437.15;1711896;82;21052;-67
2020/12/04 03:07:56;;;;;;;50.63;32.55;;;;;;;-1.01;87.34;98426.02;1693813;84;21608;-68
2020/12/04 03:10:22;;;;;;;56.55;35.28;;;;;;;-1.01;87.34;98426.02;1690990;84;21195;-67
2020/12/04 03:12:49;;;;;;;57.85;33.65;;;;;;;-1.01;87.34;98423.45;1692672;83;22605;-67
2020/12/04 03:15:16;;;;;;;56.13;32.45;;;;;;;-1.02;87.36;98422.61;1718212;81;21104;-66
2020/12/04 03:17:43;;;;;;;44.55;27.87;;;;;;;-1.01;87.35;98423.45;1703662;82;21091;-67
2020/12/04 03:20:11;;;;;;;55.55;35.73;;;;;;;-0.98;87.37;98436.19;1679604;83;21196;-66
2020/12/04 03:22:38;;;;;;;49.58;33.02;;;;;;;-0.98;87.33;98433.63;1684830;84;21059;-68
2020/12/04 03:25:05;;;;;;;55.30;34.63;;;;;;;-0.97;87.31;98435.34;1685721;83;21650;-68
2020/12/04 03:27:32;;;;;;;41.83;24.35;;;;;;;-0.96;87.34;98430.61;1681444;84;21207;-67
2020/12/04 03:29:59;;;;;;;48.70;32.17;;;;;;;-0.97;87.36;98421.25;1685941;84;21243;-67
2020/12/04 03:32:26;;;;;;;52.73;32.95;;;;;;;-0.97;87.43;98421.25;1696443;83;21218;-67
2020/12/04 03:34:53;;;;;;;51.68;31.27;;;;;;;-0.96;87.42;98422.92;1691102;84;21202;-66
2020/12/04 03:37:21;;;;;;;38.55;23.77;;;;;;;-0.95;87.42;98414.38;1708990;83;21719;-67
2020/12/04 03:39:48;;;;;;;52.90;33.58;;;;;;;-0.94;87.43;98419.89;1691666;84;21398;-67
2020/12/04 03:42:15;;;;;;;51.73;34.13;;;;;;;-0.94;87.42;98416.05;1681749;84;21597;-68
2020/12/04 03:44:42;;;;;;;56.33;32.63;;;;;;;-0.94;87.44;98412.20;1680049;83;21214;-67
2020/12/04 03:47:09;;;;;;;54.73;34.70;;;;;;;-0.92;87.42;98409.19;1690129;84;21622;-67
2020/12/04 03:49:36;;;;;;;52.67;33.35;;;;;;;-0.92;87.40;98417.70;1690649;84;21223;-65
2020/12/04 03:52:03;;;;;;;51.80;33.45;;;;;;;-0.91;87.41;98412.14;1678374;84;21033;-68
2020/12/04 03:54:30;;;;;;;54.35;32.30;;;;;;;-0.89;87.44;98415.52;1687538;84;21270;-68
2020/12/04 03:56:56;;;;;;;51.18;31.57;;;;;;;-0.86;87.42;98405.20;1688443;84;21684;-67
2020/12/04 03:59:23;;;;;;;51.08;30.05;;;;;;;-0.87;87.40;98402.66;1713236;83;21179;-67
2020/12/04 04:01:50;;;;;;;55.50;33.67;;;;;;;-0.85;87.39;98388.94;1687163;83;21643;-66
2020/12/04 04:04:17;;;;;;;44.75;28.73;;;;;;;-0.85;87.40;98396.62;1683589;84;21545;-66
2020/12/04 04:06:44;;;;;;;51.75;32.13;;;;;;;-0.83;87.42;98398.72;1691165;84;21092;-67
2020/12/04 04:09:11;;;;;;;52.13;31.23;;;;;;;-0.84;87.40;98398.33;1686112;84;21202;-69
2020/12/04 04:11:38;;;;;;;48.50;31.93;;;;;;;-0.84;87.38;98395.77;1682927;83;21463;-66
2020/12/04 04:14:05;;;;;;;54.35;33.53;;;;;;;-0.84;87.40;98396.17;1683020;83;21688;-66
2020/12/04 04:16:32;;;;;;;40.70;27.32;;;;;;;-0.84;87.41;98393.20;1688598;84;21147;-66
2020/12/04 04:18:58;;;;;;;52.05;32.98;;;;;;;-0.85;87.43;98394.06;1670728;84;21257;-68
2020/12/04 04:21:26;;;;;;;49.27;32.65;;;;;;;-0.85;87.45;98394.06;1660823;85;21206;-67
2020/12/04 04:23:53;;;;;;;49.45;28.47;;;;;;;-0.86;87.46;98383.42;1663157;85;21170;-67
2020/12/04 04:26:20;;;;;;;47.35;30.32;;;;;;;-0.85;87.49;98381.24;1657613;85;21170;-66
2020/12/04 04:28:46;;;;;;;50.63;31.27;;;;;;;-0.86;87.50;98371.88;1656551;85;21223;-65
2020/12/04 04:31:14;;;;;;;50.17;29.98;;;;;;;-0.86;87.53;98374.45;1668831;83;21174;-68
2020/12/04 04:33:41;;;;;;;42.55;25.65;;;;;;;-0.87;87.53;98370.17;1665694;84;21103;-66
2020/12/04 04:36:08;;;;;;;48.48;30.00;;;;;;;-0.86;87.64;98373.61;1661512;86;21661;-66
2020/12/04 04:38:34;;;;;;;51.75;31.80;;;;;;;-0.86;87.58;98369.32;1654985;84;21218;-67
2020/12/04 04:41:02;;;;;;;46.68;29.30;;;;;;;-0.87;87.57;98365.05;1650681;85;21740;-68
2020/12/04 04:43:28;;;;;;;47.88;31.42;;;;;;;-0.86;87.60;98370.60;1658896;84;21209;-66
2020/12/04 04:46:21;;;;;;;45.95;30.50;;;;;;;-0.86;87.64;98365.48;1666101;84;21195;-66
2020/12/04 04:48:55;;;;;;;33.70;20.60;;;;;;;-0.87;87.64;98370.17;1656721;85;21180;-67
2020/12/04 04:51:25;;;;;;;46.98;27.70;;;;;;;-0.87;87.73;98361.21;1654736;85;21249;-67
2020/12/04 04:53:58;;;;;;;46.53;28.60;;;;;;;-0.87;87.75;98366.34;1677123;84;21094;-70
2020/12/04 04:56:26;;;;;;;48.17;31.00;;;;;;;-0.86;87.73;98361.63;1678104;84;21077;-67
2020/12/04 04:58:52;;;;;;;46.20;29.42;;;;;;;-0.86;87.75;98355.23;1686863;84;21578;-66
2020/12/04 05:01:19;;;;;;;40.63;24.57;;;;;;;-0.84;87.75;98350.05;1670984;84;21135;-67
2020/12/04 05:04:00;;;;;;;47.15;31.62;;;;;;;-0.84;87.78;98339.38;1678004;84;21195;-69
2020/12/04 05:06:34;;;;;;;47.40;29.00;;;;;;;-0.84;87.78;98338.11;1652032;85;21222;-67
2020/12/04 05:09:18;;;;;;;51.58;31.17;;;;;;;-0.79;87.76;98332.41;1817435;77;22803;-67
2020/12/04 05:11:57;;;;;;;43.20;25.00;;;;;;;-0.83;87.76;98329.97;1793441;77;21569;-65
2020/12/04 05:14:27;;;;;;;42.38;25.68;;;;;;;-0.84;87.80;98318.88;1801679;77;21189;-67
2020/12/04 05:16:58;;;;;;;41.65;24.02;;;;;;;-0.85;87.85;98322.30;1788170;79;21024;-65
2020/12/04 05:19:42;;;;;;;32.70;19.23;;;;;;;-0.86;87.87;98312.95;1788450;79;21605;-66
2020/12/04 05:22:16;;;;;;;45.52;27.35;;;;;;;-0.86;87.90;98322.36;1795855;79;20996;-65
2020/12/04 05:24:45;;;;;;;43.63;27.15;;;;;;;-0.86;87.88;98325.76;1800484;79;21020;-66
2020/12/04 05:27:28;;;;;;;42.67;27.58;;;;;;;-0.87;87.90;98316.36;1796244;79;21193;-66
2020/12/04 05:30:00;;;;;;;41.37;25.25;;;;;;;-0.87;87.93;98310.41;1793896;79;20999;-71
2020/12/04 05:32:28;;;;;;;45.55;24.25;;;;;;;-0.89;87.97;98315.58;1802988;79;21550;-67
2020/12/04 05:35:09;;;;;;;38.45;22.98;;;;;;;-0.88;88.06;98312.12;1783155;77;21600;-66
2020/12/04 05:37:36;;;;;;;48.20;27.77;;;;;;;-0.88;88.10;98301.87;1799103;79;21049;-66
2020/12/04 05:40:04;;;;;;;41.25;25.20;;;;;;;-0.88;88.10;98314.69;1799713;79;22061;-67
2020/12/04 05:42:35;;;;;;;;;;;;;;;-0.87;88.15;98308.67;1804774;79;21619;-65
2020/12/04 05:45:05;;;;;;;40.08;23.45;;;;;;;-0.89;88.26;98313.02;1790231;78;20246;-67
2020/12/04 05:47:40;;;;;;;46.33;27.02;;;;;;;-0.91;88.29;98304.52;1782570;79;21045;-66
2020/12/04 05:50:16;;;;;;;42.13;28.12;;;;;;;-0.87;88.27;98303.55;1827692;77;22683;-65
2020/12/04 05:52:43;;;;;;;48.42;30.30;;;;;;;-0.92;88.35;98306.69;1805524;78;20985;-66
2020/12/04 05:55:10;;;;;;;50.48;31.42;;;;;;;-0.92;88.27;98306.69;1809360;78;21686;-65
2020/12/04 05:57:48;;;;;;;46.50;31.00;;;;;;;-0.91;88.27;98312.20;1810061;78;21017;-67
2020/12/04 06:00:16;;;;;;;47.27;26.12;;;;;;;-0.88;88.23;98302.33;1805830;78;21028;-64
2020/12/04 06:02:43;;;;;;;42.83;25.72;;;;;;;-0.89;88.24;98296.36;1799717;78;21012;-63
2020/12/04 06:05:11;;;;;;;45.35;29.07;;;;;;;-0.88;88.22;98283.94;1807379;78;21589;-65
2020/12/04 06:07:40;;;;;;;36.23;21.70;;;;;;;-0.87;88.22;98292.02;1804576;78;21446;-66
2020/12/04 06:10:08;;;;;;;41.88;26.40;;;;;;;-0.87;88.20;98290.73;1797954;78;21590;-66
2020/12/04 06:12:35;;;;;;;43.23;26.93;;;;;;;-0.86;88.20;98293.73;1747587;80;21078;-67
2020/12/04 06:15:24;;;;;;;47.00;28.05;;;;;;;-0.86;88.16;98295.01;1752735;80;21040;-67
2020/12/04 06:17:51;;;;;;;39.42;25.62;;;;;;;-0.85;88.13;98296.67;1750980;80;21110;-66
2020/12/04 06:20:22;;;;;;;43.55;25.72;;;;;;;-0.85;88.13;98304.36;1780202;80;22603;-64
2020/12/04 06:23:14;;;;;;;34.85;23.30;;;;;;;-0.84;88.13;98299.66;1734870;81;21075;-65
2020/12/04 06:25:56;;;;;;;41.18;26.02;;;;;;;-0.83;88.10;98294.09;1752973;80;21510;-66
2020/12/04 06:28:39;;;;;;;43.52;25.50;;;;;;;-0.83;88.12;98296.21;1763646;80;21184;-66
2020/12/04 06:31:14;;;;;;;34.92;20.23;;;;;;;-0.82;88.08;98294.04;1760293;80;21041;-66
2020/12/04 06:33:51;;;;;;;40.23;22.77;;;;;;;-0.81;88.03;98293.59;1743373;81;21736;-66
2020/12/04 06:36:34;;;;;;;41.92;26.90;;;;;;;-0.80;87.99;98294.85;1733440;81;21101;-67
2020/12/04 06:39:04;;;;;;;38.08;20.48;;;;;;;-0.79;88.06;98304.21;1743720;81;21207;-67
2020/12/04 06:41:44;;;;;;;38.55;23.80;;;;;;;-0.78;88.01;98293.10;1747631;81;21175;-65
2020/12/04 06:44:26;;;;;;;26.25;14.85;;;;;;;-0.76;87.98;98296.45;1747072;81;21166;-66
2020/12/04 06:47:01;;;;;;;34.33;19.82;;;;;;;-0.75;87.95;98302.44;1738406;81;21779;-65
2020/12/04 06:49:39;;;;;;;39.27;23.40;;;;;;;-0.74;87.93;98292.13;1744350;81;21024;-65
2020/12/04 06:52:14;;;;;;;32.23;19.17;;;;;;;-0.74;87.94;98285.73;1745252;81;20997;-64
2020/12/04 06:54:51;;;;;;;40.50;24.40;;;;;;;-0.71;87.84;98292.05;1744878;81;21253;-64
2020/12/04 06:57:23;;;;;;;32.83;17.90;;;;;;;-0.71;87.84;98279.23;1710718;81;21208;-65
2020/12/04 06:59:51;;;;;;;39.33;24.77;;;;;;;-0.70;87.78;98291.20;1740361;81;21212;-64
2020/12/04 07:02:21;;;;;;;36.60;22.55;;;;;;;-0.69;87.82;98285.18;1747442;81;21183;-66
2020/12/04 07:04:52;;;;;;;39.42;21.65;;;;;;;-0.69;87.76;98287.74;1740782;81;21061;-64
2020/12/04 07:07:21;;;;;;;38.65;23.77;;;;;;;-0.66;87.81;98291.12;1751779;81;21064;-68
2020/12/04 07:09:55;;;;;;;40.55;25.80;;;;;;;-0.65;87.80;98295.35;1741967;81;21192;-66
2020/12/04 07:12:26;;;;;;;31.05;19.35;;;;;;;-0.63;87.79;98293.60;1747110;81;21212;-65
2020/12/04 07:14:56;;;;;;;26.12;14.85;;;;;;;-0.62;87.79;98287.58;1750478;81;21601;-67
2020/12/04 07:17:26;;;;;;;35.23;19.20;;;;;;;-0.60;87.57;98280.70;1749926;81;21044;-67
2020/12/04 07:19:55;;;;;;;36.38;23.47;;;;;;;-0.58;87.60;98289.20;1736184;81;21597;-65
2020/12/04 07:22:24;;;;;;;34.23;20.00;;;;;;;-0.58;87.66;98291.77;1743436;81;21033;-65
2020/12/04 07:24:53;;;;;;;30.82;18.90;;;;;;;-0.57;87.56;98290.88;1737755;81;21221;-65
2020/12/04 07:27:29;;;;;;;31.27;19.17;;;;;;;-0.56;87.58;98279.73;1739130;81;21064;-65
2020/12/04 07:29:57;;;;;;;38.78;20.77;;;;;;;-0.54;87.62;98271.56;1740179;81;21114;-65
2020/12/04 07:32:26;;;;;;;34.10;19.50;;;;;;;-0.52;87.51;98278.79;1742854;80;21582;-66
2020/12/04 07:34:53;;;;;;;26.12;15.30;;;;;;;-0.50;87.32;98271.91;1741537;81;21377;-66
2020/12/04 07:37:27;;;;;;;33.20;21.85;;;;;;;-0.48;87.39;98272.69;1749866;81;21650;-67
2020/12/04 07:39:54;;;;;;;31.97;20.37;;;;;;;-0.48;87.38;98272.69;1749322;81;21143;-65
2020/12/04 07:42:21;;;;;;;36.75;21.25;;;;;;;-0.46;87.42;98258.11;1740085;81;21248;-65
2020/12/04 07:44:53;;;;;;;33.70;21.48;;;;;;;-0.44;87.42;98274.30;1742695;81;20989;-66
2020/12/04 07:47:20;;;;;;;30.25;20.17;;;;;;;-0.44;87.28;98262.77;1743246;81;21001;-65
2020/12/04 07:49:51;;;;;;;;;;;;;;;-0.42;87.35;98259.73;1728520;81;21209;-67
2020/12/04 07:52:31;;;;;;;31.93;20.60;;;;;;;-0.41;87.31;98253.70;1723195;81;20566;-66
2020/12/04 07:55:03;;;;;;;36.40;20.75;;;;;;;-0.39;87.24;98281.45;1719628;82;21073;-66
2020/12/04 07:58:02;;;;;;;26.20;17.23;;;;;;;-0.39;87.26;98276.31;1720864;81;21061;-65
2020/12/04 08:00:34;;;;;;;37.95;22.50;;;;;;;-0.38;87.15;98271.58;1722770;82;21203;-66
2020/12/04 08:03:06;;;;;;;34.98;21.27;;;;;;;-0.36;87.11;98269.82;1725409;81;21146;-66
2020/12/04 08:05:42;;;;;;;32.45;19.80;;;;;;;-0.32;87.10;98271.41;1835905;77;22377;-65
2020/12/04 08:08:09;;;;;;;26.45;15.15;;;;;;;-0.34;87.04;98273.16;1805501;78;20961;-64
2020/12/04 08:10:37;;;;;;;26.02;15.53;;;;;;;-0.36;86.91;98267.26;1802729;78;21201;-64
2020/12/04 08:13:05;;;;;;;29.10;17.20;;;;;;;-0.32;86.97;98259.03;1810223;77;21073;-65
2020/12/04 08:15:33;;;;;;;35.63;21.27;;;;;;;-0.34;86.91;98258.22;1799479;78;21004;-64
2020/12/04 08:18:05;;;;;;;33.00;18.87;;;;;;;-0.34;87.02;98257.78;1803592;78;21076;-66
2020/12/04 08:20:33;;;;;;;27.65;15.50;;;;;;;-0.33;86.90;98249.22;1806388;78;21002;-64
2020/12/04 08:23:00;;;;;;;35.10;20.82;;;;;;;-0.32;86.77;98263.72;1809682;78;21880;-65
2020/12/04 08:25:32;;;;;;;36.65;22.07;;;;;;;-0.31;86.96;98244.90;1807813;78;21093;-65
2020/12/04 08:28:01;;;;;;;33.55;19.62;;;;;;;-0.31;86.93;98244.90;1745226;80;21050;-64
2020/12/04 08:30:29;;;;;;;32.50;17.20;;;;;;;-0.30;86.92;98231.18;1769907;80;20981;-63
2020/12/04 08:33:00;;;;;;;;;;;;;;;-0.26;86.83;98230.20;1779603;79;21202;-64
2020/12/04 08:35:40;;;;;;;36.58;20.65;;;;;;;-0.23;86.93;98240.37;1776760;79;21219;-65
2020/12/04 08:38:12;;;;;;;30.55;17.25;;;;;;;-0.23;86.81;98237.81;1764431;79;21032;-65
2020/12/04 08:40:48;;;;;;;28.67;16.95;;;;;;;-0.20;86.73;98224.50;1738930;81;21606;-66
2020/12/04 08:43:20;;;;;;;33.08;18.98;;;;;;;-0.19;86.64;98229.61;1745325;80;21130;-65
2020/12/04 08:45:54;;;;;;;37.30;20.82;;;;;;;-0.17;86.72;98218.00;1751098;80;21134;-65
2020/12/04 08:48:24;;;;;;;32.08;17.57;;;;;;;-0.13;86.75;98226.03;1773448;80;21220;-66
2020/12/04 08:50:56;;;;;;;32.23;19.17;;;;;;;-0.11;86.58;98225.52;1753139;80;21585;-66
2020/12/04 08:53:24;;;;;;;35.95;20.65;;;;;;;-0.09;86.66;98228.89;1752589;81;21020;-66
2020/12/04 08:55:54;;;;;;;36.90;21.40;;;;;;;-0.07;86.72;98242.53;1760335;81;20981;-67
2020/12/04 08:58:23;;;;;;;36.75;22.17;;;;;;;-0.06;86.64;98240.35;1755779;81;21041;-65
2020/12/04 09:00:53;;;;;;;39.48;23.47;;;;;;;-0.04;86.64;98237.31;1751297;81;21422;-66
2020/12/04 09:03:29;;;;;;;32.58;19.77;;;;;;;-0.02;86.66;98225.28;1758619;81;21672;-66
2020/12/04 09:06:09;;;;;;;39.27;22.55;;;;;;;-0.01;86.63;98229.52;1706856;81;21170;-65
2020/12/04 09:08:38;;;;;;;31.45;16.80;;;;;;;0.01;86.70;98220.06;1738523;81;21194;-66
2020/12/04 09:11:05;;;;;;;33.38;20.30;;;;;;;0.02;86.54;98221.73;1745415;81;21226;-66
2020/12/04 09:13:32;;;;;;;37.00;21.10;;;;;;;0.02;86.69;98211.47;1737539;81;21283;-65
2020/12/04 09:15:59;;;;;;;35.28;19.60;;;;;;;0.02;86.63;98216.59;1745079;81;21199;-65
2020/12/04 09:18:26;;;;;;;33.95;21.80;;;;;;;0.03;86.70;98200.34;1742961;81;21080;-67
2020/12/04 09:20:54;;;;;;;35.28;19.12;;;;;;;0.05;86.84;98229.34;1739202;81;21325;-65
2020/12/04 09:23:21;;;;;;;40.43;22.20;;;;;;;0.08;86.81;98222.83;1739807;81;21708;-65
2020/12/04 09:25:48;;;;;;;27.95;18.50;;;;;;;0.13;86.89;98231.24;1737365;81;21207;-66
2020/12/04 09:28:16;;;;;;;26.80;17.42;;;;;;;0.18;86.73;98233.23;1735918;81;21033;-66
2020/12/04 09:30:43;;;;;;;;;;;;;;;0.24;86.77;98244.22;1732563;81;21210;-65
2020/12/04 09:33:10;;;;;;;39.83;23.67;;;;;;;0.29;86.85;98239.80;1729274;81;20407;-66
2020/12/04 09:35:38;;;;;;;42.38;23.95;;;;;;;0.34;86.77;98236.66;1736581;81;21239;-66
2020/12/04 09:38:04;;;;;;;38.00;23.42;;;;;;;0.43;86.84;98248.77;1737843;81;21226;-65
2020/12/04 09:40:31;;;;;;;34.10;22.10;;;;;;;0.49;86.74;98249.47;1719848;81;21029;-66
2020/12/04 09:42:58;;;;;;;35.55;23.12;;;;;;;0.52;86.65;98232.23;1735392;81;21987;-64
2020/12/04 09:45:29;;;;;;;40.43;23.47;;;;;;;0.55;86.64;98235.98;1729075;81;21606;-65
2020/12/04 09:47:55;;;;;;;30.15;19.00;;;;;;;0.58;86.59;98241.48;1731367;81;21159;-65
2020/12/04 09:50:22;;;;;;;33.02;16.07;;;;;;;0.61;86.57;98226.80;1733507;81;21644;-65
2020/12/04 09:52:50;;;;;;;37.25;22.42;;;;;;;0.62;86.44;98233.64;1729264;81;21207;-66
2020/12/04 09:55:17;;;;;;;32.65;20.72;;;;;;;0.59;86.50;98215.77;1735451;81;21044;-66
2020/12/04 09:57:44;;;;;;;31.70;17.37;;;;;;;0.58;86.48;98221.77;1729167;81;21037;-65
2020/12/04 10:00:11;;;;;;;36.17;21.90;;;;;;;0.56;86.53;98218.42;1702811;81;21604;-66
2020/12/04 10:02:38;;;;;;;36.42;23.05;;;;;;;0.55;86.55;98228.28;1733114;81;21776;-66
2020/12/04 10:05:05;;;;;;;36.98;23.73;;;;;;;0.55;86.60;98221.03;1739068;81;21214;-66
2020/12/04 10:07:32;;;;;;;33.10;23.18;;;;;;;0.54;86.69;98232.20;1750068;81;21106;-66
2020/12/04 10:09:59;;;;;;;38.65;23.20;;;;;;;0.53;86.73;98233.91;1748079;81;21496;-65
2020/12/04 10:12:26;;;;;;;32.40;19.67;;;;;;;0.58;86.86;98227.35;1756205;81;21182;-66
2020/12/04 10:14:55;;;;;;;33.10;22.95;;;;;;;0.63;86.75;98226.32;1744518;81;21196;-66
2020/12/04 10:17:22;;;;;;;33.10;21.25;;;;;;;0.68;86.76;98226.64;1751014;81;21741;-66
2020/12/04 10:19:50;;;;;;;27.67;17.95;;;;;;;0.74;86.78;98229.84;1757994;81;21117;-65
2020/12/04 10:22:16;;;;;;;32.95;21.15;;;;;;;0.76;86.59;98228.53;1758412;81;21016;-67
2020/12/04 10:24:43;;;;;;;38.80;23.02;;;;;;;0.76;86.61;98214.40;1757633;80;21056;-66
2020/12/04 10:27:13;;;;;;;47.25;30.55;;;;;;;0.74;86.59;98220.02;1785160;79;21675;-66
2020/12/04 10:29:41;;;;;;;47.60;28.77;;;;;;;0.74;86.70;98231.58;1779204;80;21557;-66
2020/12/04 10:32:08;;;;;;;79.55;44.27;;;;;;;0.76;86.66;98220.82;1780529;80;21060;-67
2020/12/04 10:34:34;;;;;;;50.00;31.00;;;;;;;0.74;86.70;98232.86;1777496;80;21210;-66
2020/12/04 10:37:03;;;;;;;50.70;31.25;;;;;;;0.75;86.72;98238.39;1746760;81;21206;-66
2020/12/04 10:39:30;;;;;;;51.68;37.35;;;;;;;0.76;86.73;98240.09;1751285;81;21157;-65
2020/12/04 10:41:57;;;;;;;34.08;20.75;;;;;;;0.78;86.79;98239.13;1752638;81;21093;-66
2020/12/04 10:44:24;;;;;;;33.75;22.77;;;;;;;0.79;86.73;98231.00;1746183;81;21061;-68
2020/12/04 10:46:51;;;;;;;25.35;15.30;;;;;;;0.78;86.66;98236.55;1747703;81;21046;-67
2020/12/04 10:49:19;;;;;;;38.05;23.55;;;;;;;0.79;86.62;98227.14;1757357;80;21208;-66
2020/12/04 10:52:09;;;;;;;37.90;23.15;;;;;;;0.79;86.70;98229.71;1760429;81;21696;-67
2020/12/04 10:54:36;;;;;;;39.10;25.55;;;;;;;0.78;86.70;98224.16;1658819;85;21685;-66
2020/12/04 10:57:03;;;;;;;38.53;25.17;;;;;;;0.80;86.77;98214.23;1658990;84;21214;-67
2020/12/04 10:59:30;;;;;;;40.33;25.77;;;;;;;0.82;86.75;98217.60;1659245;85;21016;-66
2020/12/04 11:02:05;;;;;;;43.90;25.37;;;;;;;0.85;86.74;98225.66;1655709;85;21648;-66
2020/12/04 11:07:10;;;;;;;39.78;24.07;;;;;;;0.90;86.68;98252.05;1666692;84;21275;-66
2020/12/04 11:09:38;;;;;;;28.47;17.98;;;;;;;0.89;86.54;98236.22;1663424;84;21193;-65
2020/12/04 11:12:05;;;;;;;37.08;23.25;;;;;;;0.89;86.59;98227.23;1622314;86;21247;-66
2020/12/04 11:14:32;;;;;;;36.83;21.62;;;;;;;0.88;86.69;98231.98;1627338;86;21609;-67
2020/12/04 11:16:59;;;;;;;35.03;23.27;;;;;;;0.89;86.60;98228.52;1658824;84;21420;-65
2020/12/04 11:19:26;;;;;;;;;;;;;;;0.88;86.63;98226.84;1667268;84;21140;-66
2020/12/04 11:21:53;;;;;;;35.63;22.30;;;;;;;0.87;86.48;98222.61;1666557;84;20575;-65
2020/12/04 11:24:20;;;;;;;34.63;22.50;;;;;;;0.86;86.61;98228.16;1670707;84;21053;-65
2020/12/04 11:26:48;;;;;;;35.25;20.92;;;;;;;0.85;86.68;98234.65;1665051;84;21174;-65
2020/12/04 11:29:15;;;;;;;33.65;20.80;;;;;;;0.86;86.65;98229.90;1668894;84;21610;-66
2020/12/04 11:31:42;;;;;;;38.23;25.02;;;;;;;0.86;86.60;98211.46;1667067;84;21113;-65
2020/12/04 11:34:09;;;;;;;40.43;23.38;;;;;;;0.87;86.67;98207.19;1668598;84;21087;-67